UAL703 KLAX-KDEN
Flight info
| Callsign | UAL703 |
|---|---|
| Flight time | 1h 46m |
| Altitude | 37000 |
| Route | ORCKA5 LAS J146 DICEE BUMMP SSKII4 |
| Aircraft | B738/M-SDE2E3FGHIRWXY/LB1 |
Departure
| Time | 2026-04-25 17:49 |
|---|---|
| Airport | Los Angeles International Airport (KLAX) |
Arrival
| Time | 2026-04-25 19:35 |
|---|---|
| Airport | Denver International Airport (KDEN) |
| Time | Latitude | Longitude | Altitude | Speed | Heading |
|---|---|---|---|---|---|
| 2026-04-25 17:29 | 33.94070 | -118.40015 | 118 ft | 0 kts | 80° |
| 2026-04-25 17:40 | 33.94068 | -118.40032 | 118 ft | 2 kts | 80° |
| 2026-04-25 17:40 | 33.94066 | -118.40050 | 118 ft | 2 kts | 102° |
| 2026-04-25 17:40 | 33.94072 | -118.40067 | 118 ft | 2 kts | 126° |
| 2026-04-25 17:40 | 33.94083 | -118.40079 | 118 ft | 2 kts | 151° |
| 2026-04-25 17:41 | 33.94093 | -118.40084 | 118 ft | 0 kts | 170° |
| 2026-04-25 17:41 | 33.94100 | -118.40085 | 118 ft | 0 kts | 173° |
| 2026-04-25 17:43 | 33.94073 | -118.40090 | 118 ft | 6 kts | 190° |
| 2026-04-25 17:43 | 33.94013 | -118.40088 | 119 ft | 10 kts | 160° |
| 2026-04-25 17:43 | 33.93939 | -118.40060 | 119 ft | 11 kts | 172° |
| 2026-04-25 17:44 | 33.93885 | -118.40010 | 118 ft | 9 kts | 114° |
| 2026-04-25 17:44 | 33.93886 | -118.39935 | 116 ft | 9 kts | 83° |
| 2026-04-25 17:44 | 33.93898 | -118.39822 | 114 ft | 15 kts | 84° |
| 2026-04-25 17:44 | 33.93911 | -118.39687 | 111 ft | 16 kts | 83° |
| 2026-04-25 17:45 | 33.93925 | -118.39554 | 111 ft | 15 kts | 82° |
| 2026-04-25 17:45 | 33.93934 | -118.39466 | 110 ft | 17 kts | 83° |
| 2026-04-25 17:45 | 33.93955 | -118.39259 | 108 ft | 18 kts | 83° |
| 2026-04-25 17:45 | 33.93970 | -118.39108 | 107 ft | 17 kts | 83° |
| 2026-04-25 17:46 | 33.93985 | -118.38959 | 104 ft | 17 kts | 82° |
| 2026-04-25 17:46 | 33.94000 | -118.38814 | 104 ft | 16 kts | 83° |
| 2026-04-25 17:46 | 33.94014 | -118.38680 | 104 ft | 15 kts | 83° |
| 2026-04-25 17:46 | 33.94027 | -118.38557 | 104 ft | 14 kts | 83° |
| 2026-04-25 17:47 | 33.94039 | -118.38441 | 103 ft | 14 kts | 83° |
| 2026-04-25 17:47 | 33.94044 | -118.38371 | 102 ft | 4 kts | 97° |
| 2026-04-25 17:47 | 33.94019 | -118.38339 | 101 ft | 7 kts | 156° |
| 2026-04-25 17:47 | 33.93966 | -118.38329 | 101 ft | 6 kts | 185° |
| 2026-04-25 17:48 | 33.93931 | -118.38551 | 104 ft | 57 kts | 263° |
| 2026-04-25 17:48 | 33.93850 | -118.39341 | 108 ft | 129 kts | 263° |
| 2026-04-25 17:48 | 33.93717 | -118.40633 | 222 ft | 175 kts | 263° |
| 2026-04-25 17:49 | 33.93539 | -118.42043 | 1067 ft | 170 kts | 252° |
| 2026-04-25 17:49 | 33.93148 | -118.43369 | 1649 ft | 175 kts | 246° |
| 2026-04-25 17:49 | 33.92681 | -118.44762 | 2095 ft | 188 kts | 246° |
| 2026-04-25 17:49 | 33.92171 | -118.46286 | 2534 ft | 203 kts | 247° |
| 2026-04-25 17:50 | 33.91577 | -118.47915 | 2924 ft | 222 kts | 237° |
| 2026-04-25 17:50 | 33.90492 | -118.49278 | 3371 ft | 236 kts | 212° |
| 2026-04-25 17:50 | 33.88926 | -118.49945 | 3926 ft | 247 kts | 183° |
| 2026-04-25 17:50 | 33.87213 | -118.49593 | 4425 ft | 262 kts | 155° |
| 2026-04-25 17:51 | 33.85773 | -118.48241 | 5140 ft | 269 kts | 129° |
| 2026-04-25 17:51 | 33.84985 | -118.46169 | 5812 ft | 279 kts | 98° |
| 2026-04-25 17:51 | 33.85220 | -118.43893 | 6529 ft | 284 kts | 66° |
| 2026-04-25 17:51 | 33.86412 | -118.42028 | 7246 ft | 287 kts | 39° |
| 2026-04-25 17:52 | 33.88038 | -118.40596 | 7940 ft | 292 kts | 32° |
| 2026-04-25 17:52 | 33.89171 | -118.39720 | 8408 ft | 295 kts | 31° |
| 2026-04-25 17:52 | 33.91498 | -118.37904 | 9365 ft | 301 kts | 32° |
| 2026-04-25 17:52 | 33.93241 | -118.36476 | 10022 ft | 308 kts | 32° |
| 2026-04-25 17:53 | 33.95036 | -118.34965 | 10462 ft | 323 kts | 33° |
| 2026-04-25 17:53 | 33.96920 | -118.33363 | 10839 ft | 339 kts | 33° |
| 2026-04-25 17:53 | 33.98891 | -118.31679 | 11211 ft | 355 kts | 33° |
| 2026-04-25 17:53 | 34.00864 | -118.29781 | 11529 ft | 374 kts | 43° |
| 2026-04-25 17:54 | 34.02594 | -118.27390 | 11954 ft | 388 kts | 52° |
| 2026-04-25 17:54 | 34.04178 | -118.24688 | 12611 ft | 394 kts | 56° |
| 2026-04-25 17:54 | 34.05682 | -118.21914 | 13288 ft | 399 kts | 57° |
| 2026-04-25 17:54 | 34.07178 | -118.19112 | 13950 ft | 405 kts | 57° |
| 2026-04-25 17:55 | 34.08737 | -118.16227 | 14623 ft | 411 kts | 56° |
| 2026-04-25 17:55 | 34.10318 | -118.13351 | 15349 ft | 415 kts | 56° |
| 2026-04-25 17:55 | 34.11926 | -118.10466 | 16028 ft | 420 kts | 56° |
| 2026-04-25 17:55 | 34.13565 | -118.07548 | 16689 ft | 425 kts | 55° |
| 2026-04-25 17:56 | 34.15231 | -118.04595 | 17305 ft | 430 kts | 55° |
| 2026-04-25 17:56 | 34.16917 | -118.01613 | 17931 ft | 435 kts | 55° |
| 2026-04-25 17:56 | 34.18618 | -117.98595 | 18575 ft | 439 kts | 55° |
| 2026-04-25 17:56 | 34.20345 | -117.95529 | 19220 ft | 443 kts | 55° |
| 2026-04-25 17:57 | 34.22086 | -117.92437 | 19801 ft | 448 kts | 55° |
| 2026-04-25 17:57 | 34.23828 | -117.89341 | 20425 ft | 451 kts | 55° |
| 2026-04-25 17:57 | 34.25610 | -117.86172 | 20966 ft | 457 kts | 56° |
| 2026-04-25 17:57 | 34.26794 | -117.84063 | 21334 ft | 459 kts | 55° |
| 2026-04-25 17:58 | 34.29208 | -117.79761 | 22068 ft | 465 kts | 56° |
| 2026-04-25 17:58 | 34.31021 | -117.76521 | 22562 ft | 470 kts | 56° |
| 2026-04-25 17:58 | 34.32847 | -117.73255 | 23117 ft | 473 kts | 55° |
| 2026-04-25 17:58 | 34.34682 | -117.69969 | 23685 ft | 476 kts | 56° |
| 2026-04-25 17:59 | 34.36560 | -117.66648 | 24211 ft | 480 kts | 54° |
| 2026-04-25 17:59 | 34.38496 | -117.63342 | 24721 ft | 484 kts | 53° |
| 2026-04-25 17:59 | 34.40449 | -117.60074 | 25259 ft | 486 kts | 53° |
| 2026-04-25 17:59 | 34.42449 | -117.56755 | 25792 ft | 490 kts | 53° |
| 2026-04-25 18:00 | 34.44462 | -117.53417 | 26297 ft | 493 kts | 52° |
| 2026-04-25 18:00 | 34.46506 | -117.50023 | 26748 ft | 498 kts | 53° |
| 2026-04-25 18:00 | 34.48528 | -117.46650 | 27225 ft | 501 kts | 52° |
| 2026-04-25 18:00 | 34.50559 | -117.43248 | 27761 ft | 503 kts | 53° |
| 2026-04-25 18:01 | 34.52613 | -117.39787 | 28110 ft | 509 kts | 53° |
| 2026-04-25 18:01 | 34.54684 | -117.36285 | 28779 ft | 506 kts | 53° |
| 2026-04-25 18:01 | 34.56695 | -117.32886 | 29690 ft | 498 kts | 53° |
| 2026-04-25 18:01 | 34.58707 | -117.29488 | 30328 ft | 495 kts | 53° |
| 2026-04-25 18:02 | 34.60701 | -117.26120 | 30841 ft | 495 kts | 53° |
| 2026-04-25 18:02 | 34.62722 | -117.22704 | 31275 ft | 496 kts | 53° |
| 2026-04-25 18:02 | 34.64732 | -117.19306 | 31720 ft | 497 kts | 53° |
| 2026-04-25 18:02 | 34.66748 | -117.15899 | 32119 ft | 498 kts | 53° |
| 2026-04-25 18:03 | 34.68761 | -117.12491 | 32579 ft | 498 kts | 53° |
| 2026-04-25 18:03 | 34.70750 | -117.09108 | 33080 ft | 496 kts | 53° |
| 2026-04-25 18:03 | 34.72745 | -117.05707 | 33530 ft | 495 kts | 53° |
| 2026-04-25 18:03 | 34.74741 | -117.02307 | 33970 ft | 494 kts | 53° |
| 2026-04-25 18:04 | 34.76743 | -116.98897 | 34299 ft | 495 kts | 53° |
| 2026-04-25 18:04 | 34.78744 | -116.95480 | 34545 ft | 498 kts | 53° |
| 2026-04-25 18:04 | 34.80759 | -116.92042 | 34810 ft | 500 kts | 53° |
| 2026-04-25 18:04 | 34.82776 | -116.88605 | 35066 ft | 502 kts | 53° |
| 2026-04-25 18:05 | 34.84813 | -116.85124 | 35332 ft | 503 kts | 53° |
| 2026-04-25 18:05 | 34.86839 | -116.81649 | 35613 ft | 503 kts | 53° |
| 2026-04-25 18:05 | 34.88875 | -116.78156 | 35905 ft | 504 kts | 53° |
| 2026-04-25 18:05 | 34.90897 | -116.74713 | 36212 ft | 504 kts | 52° |
| 2026-04-25 18:06 | 34.93065 | -116.71333 | 36474 ft | 505 kts | 48° |
| 2026-04-25 18:06 | 34.95371 | -116.68076 | 36786 ft | 505 kts | 45° |
| 2026-04-25 18:06 | 34.97780 | -116.64883 | 36879 ft | 509 kts | 44° |
| 2026-04-25 18:07 | 35.02651 | -116.58608 | 36878 ft | 508 kts | 43° |
| 2026-04-25 18:07 | 35.07464 | -116.52371 | 36986 ft | 504 kts | 44° |
| 2026-04-25 18:07 | 35.09847 | -116.49250 | 36884 ft | 499 kts | 44° |
| 2026-04-25 18:08 | 35.12215 | -116.46134 | 36878 ft | 495 kts | 44° |
| 2026-04-25 18:08 | 35.16862 | -116.39985 | 36873 ft | 497 kts | 44° |
| 2026-04-25 18:09 | 35.21585 | -116.33726 | 36881 ft | 502 kts | 45° |
| 2026-04-25 18:09 | 35.26304 | -116.27450 | 36869 ft | 499 kts | 45° |
| 2026-04-25 18:10 | 35.30992 | -116.21210 | 36870 ft | 499 kts | 45° |
| 2026-04-25 18:10 | 35.35674 | -116.14955 | 36866 ft | 500 kts | 45° |
| 2026-04-25 18:11 | 35.40403 | -116.08632 | 36867 ft | 500 kts | 45° |
| 2026-04-25 18:11 | 35.45061 | -116.02395 | 36866 ft | 498 kts | 45° |
| 2026-04-25 18:12 | 35.49739 | -115.96142 | 36883 ft | 497 kts | 45° |
| 2026-04-25 18:12 | 35.54407 | -115.89867 | 36884 ft | 498 kts | 45° |
| 2026-04-25 18:13 | 35.59069 | -115.83563 | 36871 ft | 499 kts | 45° |
| 2026-04-25 18:13 | 35.63689 | -115.77321 | 36871 ft | 497 kts | 44° |
| 2026-04-25 18:14 | 35.70660 | -115.67789 | 36869 ft | 499 kts | 45° |
| 2026-04-25 18:14 | 35.75264 | -115.61427 | 36872 ft | 496 kts | 45° |
| 2026-04-25 18:15 | 35.79846 | -115.55083 | 36878 ft | 497 kts | 45° |
| 2026-04-25 18:15 | 35.84436 | -115.48739 | 36884 ft | 497 kts | 45° |
| 2026-04-25 18:16 | 35.89024 | -115.42384 | 36889 ft | 496 kts | 45° |
| 2026-04-25 18:17 | 35.95927 | -115.32810 | 36884 ft | 496 kts | 45° |
| 2026-04-25 18:17 | 36.00497 | -115.26459 | 36855 ft | 497 kts | 46° |
| 2026-04-25 18:18 | 36.05044 | -115.20054 | 36830 ft | 497 kts | 48° |
| 2026-04-25 18:18 | 36.08861 | -115.12893 | 36836 ft | 502 kts | 63° |
| 2026-04-25 18:19 | 36.11634 | -115.04987 | 36826 ft | 502 kts | 69° |
| 2026-04-25 18:19 | 36.14050 | -114.96893 | 36822 ft | 502 kts | 71° |
| 2026-04-25 18:20 | 36.16453 | -114.88749 | 36830 ft | 502 kts | 70° |
| 2026-04-25 18:20 | 36.18854 | -114.80721 | 36833 ft | 501 kts | 70° |
| 2026-04-25 18:21 | 36.21299 | -114.72646 | 36835 ft | 502 kts | 70° |
| 2026-04-25 18:21 | 36.23771 | -114.64568 | 36843 ft | 502 kts | 69° |
| 2026-04-25 18:22 | 36.26240 | -114.56505 | 36845 ft | 501 kts | 69° |
| 2026-04-25 18:22 | 36.28709 | -114.48417 | 36846 ft | 502 kts | 69° |
| 2026-04-25 18:23 | 36.31158 | -114.40337 | 36850 ft | 502 kts | 69° |
| 2026-04-25 18:23 | 36.33614 | -114.32212 | 36855 ft | 503 kts | 70° |
| 2026-04-25 18:24 | 36.36056 | -114.24099 | 36857 ft | 503 kts | 70° |
| 2026-04-25 18:24 | 36.38482 | -114.16028 | 36851 ft | 503 kts | 70° |
| 2026-04-25 18:25 | 36.40924 | -114.07880 | 36858 ft | 503 kts | 70° |
| 2026-04-25 18:25 | 36.42126 | -114.03849 | 36740 ft | 500 kts | 70° |
| 2026-04-25 18:25 | 36.43343 | -113.99790 | 36767 ft | 506 kts | 70° |
| 2026-04-25 18:26 | 36.45782 | -113.91604 | 36880 ft | 508 kts | 70° |
| 2026-04-25 18:26 | 36.47536 | -113.85684 | 36887 ft | 507 kts | 70° |
| 2026-04-25 18:27 | 36.49957 | -113.77492 | 36910 ft | 506 kts | 70° |
| 2026-04-25 18:27 | 36.52343 | -113.69306 | 36913 ft | 506 kts | 70° |
| 2026-04-25 18:28 | 36.54779 | -113.61060 | 36944 ft | 509 kts | 70° |
| 2026-04-25 18:28 | 36.57246 | -113.52763 | 36919 ft | 508 kts | 69° |
| 2026-04-25 18:29 | 36.60859 | -113.40461 | 36937 ft | 506 kts | 70° |
| 2026-04-25 18:30 | 36.65658 | -113.23910 | 36983 ft | 507 kts | 70° |
| 2026-04-25 18:30 | 36.68048 | -113.15667 | 36975 ft | 506 kts | 70° |
| 2026-04-25 18:31 | 36.70421 | -113.07423 | 36959 ft | 505 kts | 70° |
| 2026-04-25 18:31 | 36.72794 | -112.99149 | 36963 ft | 506 kts | 70° |
| 2026-04-25 18:32 | 36.75160 | -112.90897 | 36963 ft | 506 kts | 70° |
| 2026-04-25 18:32 | 36.77518 | -112.82642 | 36963 ft | 506 kts | 70° |
| 2026-04-25 18:33 | 36.79877 | -112.74363 | 36959 ft | 506 kts | 70° |
| 2026-04-25 18:33 | 36.82229 | -112.66087 | 36964 ft | 508 kts | 70° |
| 2026-04-25 18:34 | 36.84592 | -112.57748 | 36960 ft | 506 kts | 70° |
| 2026-04-25 18:34 | 36.86927 | -112.49496 | 36970 ft | 507 kts | 70° |
| 2026-04-25 18:35 | 36.89270 | -112.41180 | 36956 ft | 507 kts | 70° |
| 2026-04-25 18:35 | 36.91612 | -112.32844 | 36975 ft | 508 kts | 71° |
| 2026-04-25 18:36 | 36.93922 | -112.24502 | 36971 ft | 507 kts | 71° |
| 2026-04-25 18:36 | 36.96220 | -112.16187 | 36973 ft | 508 kts | 70° |
| 2026-04-25 18:37 | 36.98561 | -112.07826 | 36965 ft | 509 kts | 70° |
| 2026-04-25 18:37 | 37.00885 | -111.99490 | 36970 ft | 509 kts | 70° |
| 2026-04-25 18:38 | 37.03210 | -111.91100 | 36951 ft | 509 kts | 71° |
| 2026-04-25 18:38 | 37.05532 | -111.82694 | 36953 ft | 511 kts | 70° |
| 2026-04-25 18:39 | 37.07825 | -111.74352 | 36964 ft | 510 kts | 71° |
| 2026-04-25 18:39 | 37.10134 | -111.65933 | 36951 ft | 508 kts | 71° |
| 2026-04-25 18:40 | 37.12427 | -111.57532 | 36952 ft | 508 kts | 70° |
| 2026-04-25 18:40 | 37.14696 | -111.49189 | 36947 ft | 508 kts | 70° |
| 2026-04-25 18:41 | 37.16979 | -111.40794 | 36964 ft | 510 kts | 70° |
| 2026-04-25 18:41 | 37.19260 | -111.32395 | 36957 ft | 509 kts | 71° |
| 2026-04-25 18:42 | 37.21158 | -111.25435 | 36958 ft | 508 kts | 70° |
| 2026-04-25 18:42 | 37.24383 | -111.15894 | 36955 ft | 510 kts | 63° |
| 2026-04-25 18:43 | 37.27539 | -111.07975 | 36954 ft | 509 kts | 60° |
| 2026-04-25 18:43 | 37.30771 | -111.00092 | 36975 ft | 506 kts | 61° |
| 2026-04-25 18:44 | 37.33933 | -110.92247 | 36959 ft | 508 kts | 61° |
| 2026-04-25 18:44 | 37.37105 | -110.84283 | 36945 ft | 507 kts | 62° |
| 2026-04-25 18:45 | 37.40223 | -110.76399 | 36942 ft | 506 kts | 62° |
| 2026-04-25 18:45 | 37.43344 | -110.68458 | 36951 ft | 507 kts | 62° |
| 2026-04-25 18:46 | 37.46460 | -110.60507 | 36955 ft | 506 kts | 62° |
| 2026-04-25 18:46 | 37.49565 | -110.52563 | 36964 ft | 507 kts | 61° |
| 2026-04-25 18:47 | 37.52670 | -110.44599 | 36965 ft | 506 kts | 61° |
| 2026-04-25 18:47 | 37.55765 | -110.36634 | 36975 ft | 506 kts | 62° |
| 2026-04-25 18:48 | 37.58855 | -110.28687 | 36978 ft | 505 kts | 62° |
| 2026-04-25 18:48 | 37.61953 | -110.20692 | 36973 ft | 507 kts | 62° |
| 2026-04-25 18:49 | 37.65029 | -110.12746 | 36980 ft | 507 kts | 62° |
| 2026-04-25 18:49 | 37.68097 | -110.04781 | 36984 ft | 507 kts | 62° |
| 2026-04-25 18:50 | 37.71171 | -109.96770 | 36987 ft | 506 kts | 62° |
| 2026-04-25 18:50 | 37.74237 | -109.88791 | 36994 ft | 505 kts | 62° |
| 2026-04-25 18:51 | 37.76791 | -109.82125 | 36995 ft | 506 kts | 62° |
| 2026-04-25 18:51 | 37.80345 | -109.72800 | 36993 ft | 505 kts | 62° |
| 2026-04-25 18:52 | 37.83379 | -109.64828 | 37002 ft | 506 kts | 61° |
| 2026-04-25 18:52 | 37.86431 | -109.56779 | 37001 ft | 505 kts | 62° |
| 2026-04-25 18:53 | 37.89463 | -109.48772 | 36999 ft | 505 kts | 62° |
| 2026-04-25 18:53 | 37.92500 | -109.40728 | 37018 ft | 506 kts | 62° |
| 2026-04-25 18:54 | 37.97013 | -109.28733 | 37011 ft | 503 kts | 63° |
| 2026-04-25 18:55 | 38.00017 | -109.20730 | 37022 ft | 503 kts | 62° |
| 2026-04-25 18:55 | 38.02995 | -109.12759 | 37026 ft | 503 kts | 63° |
| 2026-04-25 18:56 | 38.06000 | -109.04648 | 37027 ft | 504 kts | 63° |
| 2026-04-25 18:56 | 38.08965 | -108.96619 | 37026 ft | 502 kts | 62° |
| 2026-04-25 18:57 | 38.11976 | -108.88666 | 37021 ft | 503 kts | 62° |
| 2026-04-25 18:57 | 38.15117 | -108.80729 | 37022 ft | 502 kts | 60° |
| 2026-04-25 18:58 | 38.18263 | -108.72842 | 37020 ft | 502 kts | 60° |
| 2026-04-25 18:58 | 38.22969 | -108.60897 | 37039 ft | 502 kts | 60° |
| 2026-04-25 18:59 | 38.29178 | -108.44994 | 37059 ft | 502 kts | 60° |
| 2026-04-25 19:00 | 38.33789 | -108.33009 | 37071 ft | 502 kts | 61° |
| 2026-04-25 19:01 | 38.38422 | -108.21033 | 37074 ft | 503 kts | 60° |
| 2026-04-25 19:01 | 38.41501 | -108.13059 | 37082 ft | 502 kts | 61° |
| 2026-04-25 19:02 | 38.46113 | -108.01041 | 37080 ft | 504 kts | 60° |
| 2026-04-25 19:03 | 38.50179 | -107.90371 | 36991 ft | 502 kts | 61° |
| 2026-04-25 19:03 | 38.53709 | -107.81001 | 37025 ft | 502 kts | 61° |
| 2026-04-25 19:04 | 38.58230 | -107.68951 | 37091 ft | 503 kts | 61° |
| 2026-04-25 19:05 | 38.64253 | -107.52821 | 37136 ft | 504 kts | 60° |
| 2026-04-25 19:06 | 38.67260 | -107.44778 | 37141 ft | 499 kts | 60° |
| 2026-04-25 19:06 | 38.71814 | -107.32778 | 37146 ft | 501 kts | 61° |
| 2026-04-25 19:07 | 38.76370 | -107.20727 | 37134 ft | 501 kts | 61° |
| 2026-04-25 19:08 | 38.80896 | -107.08695 | 37144 ft | 500 kts | 61° |
| 2026-04-25 19:09 | 38.86418 | -106.93926 | 37155 ft | 500 kts | 61° |
| 2026-04-25 19:10 | 38.91398 | -106.80530 | 36995 ft | 497 kts | 60° |
| 2026-04-25 19:10 | 38.92868 | -106.76559 | 36616 ft | 492 kts | 61° |
| 2026-04-25 19:10 | 38.94336 | -106.72601 | 36085 ft | 492 kts | 61° |
| 2026-04-25 19:10 | 38.95802 | -106.68646 | 35611 ft | 491 kts | 61° |
| 2026-04-25 19:11 | 38.97254 | -106.64716 | 35116 ft | 491 kts | 60° |
| 2026-04-25 19:11 | 38.98738 | -106.60698 | 34567 ft | 492 kts | 61° |
| 2026-04-25 19:11 | 39.00185 | -106.56764 | 33991 ft | 493 kts | 62° |
| 2026-04-25 19:11 | 39.01643 | -106.52763 | 33409 ft | 492 kts | 61° |
| 2026-04-25 19:12 | 39.03075 | -106.48835 | 32866 ft | 490 kts | 61° |
| 2026-04-25 19:12 | 39.04510 | -106.44886 | 32320 ft | 482 kts | 61° |
| 2026-04-25 19:12 | 39.05909 | -106.41033 | 31829 ft | 472 kts | 60° |
| 2026-04-25 19:12 | 39.07285 | -106.37248 | 31327 ft | 464 kts | 60° |
| 2026-04-25 19:13 | 39.08644 | -106.33514 | 30814 ft | 461 kts | 61° |
| 2026-04-25 19:13 | 39.10008 | -106.29828 | 30317 ft | 459 kts | 60° |
| 2026-04-25 19:13 | 39.11369 | -106.26135 | 29809 ft | 457 kts | 61° |
| 2026-04-25 19:13 | 39.12703 | -106.22466 | 29327 ft | 452 kts | 61° |
| 2026-04-25 19:14 | 39.14030 | -106.18803 | 28793 ft | 450 kts | 61° |
| 2026-04-25 19:14 | 39.14912 | -106.16376 | 28458 ft | 449 kts | 62° |
| 2026-04-25 19:14 | 39.16661 | -106.11546 | 27753 ft | 445 kts | 62° |
| 2026-04-25 19:14 | 39.17928 | -106.08014 | 27278 ft | 435 kts | 62° |
| 2026-04-25 19:15 | 39.19189 | -106.04495 | 26806 ft | 427 kts | 62° |
| 2026-04-25 19:15 | 39.20430 | -106.01022 | 26290 ft | 427 kts | 63° |
| 2026-04-25 19:15 | 39.21661 | -105.97623 | 25844 ft | 417 kts | 62° |
| 2026-04-25 19:15 | 39.22864 | -105.94308 | 25414 ft | 409 kts | 62° |
| 2026-04-25 19:16 | 39.24059 | -105.90983 | 25065 ft | 404 kts | 62° |
| 2026-04-25 19:16 | 39.25216 | -105.87758 | 24826 ft | 396 kts | 62° |
| 2026-04-25 19:16 | 39.26377 | -105.84534 | 24417 ft | 393 kts | 62° |
| 2026-04-25 19:16 | 39.27525 | -105.81348 | 23979 ft | 392 kts | 62° |
| 2026-04-25 19:17 | 39.28661 | -105.78188 | 23532 ft | 391 kts | 63° |
| 2026-04-25 19:17 | 39.29800 | -105.75015 | 23098 ft | 389 kts | 62° |
| 2026-04-25 19:17 | 39.30925 | -105.71878 | 22645 ft | 388 kts | 63° |
| 2026-04-25 19:17 | 39.32063 | -105.68702 | 22197 ft | 387 kts | 63° |
| 2026-04-25 19:18 | 39.33174 | -105.65609 | 21951 ft | 379 kts | 63° |
| 2026-04-25 19:18 | 39.34296 | -105.62523 | 21489 ft | 379 kts | 63° |
| 2026-04-25 19:18 | 39.35415 | -105.59462 | 21037 ft | 377 kts | 63° |
| 2026-04-25 19:18 | 39.36522 | -105.56431 | 20611 ft | 375 kts | 63° |
| 2026-04-25 19:19 | 39.37633 | -105.53385 | 20175 ft | 373 kts | 63° |
| 2026-04-25 19:19 | 39.38735 | -105.50349 | 19734 ft | 371 kts | 63° |
| 2026-04-25 19:19 | 39.39821 | -105.47346 | 19300 ft | 369 kts | 63° |
| 2026-04-25 19:19 | 39.40531 | -105.45346 | 19020 ft | 368 kts | 65° |
| 2026-04-25 19:20 | 39.41569 | -105.41193 | 18440 ft | 366 kts | 79° |
| 2026-04-25 19:20 | 39.41856 | -105.37949 | 18000 ft | 359 kts | 88° |
| 2026-04-25 19:20 | 39.41903 | -105.34792 | 17615 ft | 348 kts | 91° |
| 2026-04-25 19:20 | 39.41875 | -105.31713 | 17268 ft | 341 kts | 92° |
| 2026-04-25 19:21 | 39.41842 | -105.28647 | 16810 ft | 341 kts | 91° |
| 2026-04-25 19:21 | 39.41828 | -105.22602 | 16026 ft | 336 kts | 91° |
| 2026-04-25 19:21 | 39.41827 | -105.19582 | 15645 ft | 335 kts | 91° |
| 2026-04-25 19:22 | 39.41835 | -105.16602 | 15185 ft | 335 kts | 90° |
| 2026-04-25 19:22 | 39.41849 | -105.13590 | 14787 ft | 333 kts | 90° |
| 2026-04-25 19:22 | 39.41877 | -105.07664 | 14024 ft | 331 kts | 90° |
| 2026-04-25 19:23 | 39.41898 | -105.04672 | 13585 ft | 330 kts | 90° |
| 2026-04-25 19:23 | 39.41935 | -104.98937 | 13239 ft | 306 kts | 90° |
| 2026-04-25 19:23 | 39.41946 | -104.96242 | 13059 ft | 290 kts | 90° |
| 2026-04-25 19:24 | 39.42012 | -104.93721 | 12929 ft | 275 kts | 86° |
| 2026-04-25 19:24 | 39.42186 | -104.91313 | 12721 ft | 266 kts | 83° |
| 2026-04-25 19:24 | 39.42628 | -104.86667 | 12151 ft | 261 kts | 83° |
| 2026-04-25 19:25 | 39.43047 | -104.82032 | 11609 ft | 257 kts | 84° |
| 2026-04-25 19:25 | 39.43249 | -104.79758 | 11320 ft | 256 kts | 84° |
| 2026-04-25 19:25 | 39.43455 | -104.77441 | 11055 ft | 261 kts | 83° |
| 2026-04-25 19:26 | 39.43830 | -104.75162 | 10920 ft | 260 kts | 72° |
| 2026-04-25 19:26 | 39.44499 | -104.73008 | 10784 ft | 263 kts | 59° |
| 2026-04-25 19:26 | 39.45711 | -104.71195 | 10476 ft | 267 kts | 33° |
| 2026-04-25 19:26 | 39.47299 | -104.70041 | 10192 ft | 260 kts | 23° |
| 2026-04-25 19:27 | 39.48962 | -104.69244 | 9954 ft | 253 kts | 8° |
| 2026-04-25 19:27 | 39.50128 | -104.69107 | 9951 ft | 243 kts | 359° |
| 2026-04-25 19:27 | 39.52314 | -104.69114 | 9958 ft | 229 kts | 357° |
| 2026-04-25 19:27 | 39.53841 | -104.69108 | 9944 ft | 211 kts | 359° |
| 2026-04-25 19:28 | 39.55265 | -104.69086 | 9939 ft | 197 kts | 358° |
| 2026-04-25 19:28 | 39.56609 | -104.69067 | 9949 ft | 194 kts | 358° |
| 2026-04-25 19:28 | 39.57999 | -104.69047 | 9956 ft | 201 kts | 358° |
| 2026-04-25 19:28 | 39.59405 | -104.69032 | 9948 ft | 203 kts | 358° |
| 2026-04-25 19:29 | 39.60789 | -104.69019 | 9936 ft | 196 kts | 357° |
| 2026-04-25 19:29 | 39.62158 | -104.69006 | 9913 ft | 194 kts | 357° |
| 2026-04-25 19:29 | 39.63457 | -104.68991 | 9814 ft | 180 kts | 358° |
| 2026-04-25 19:29 | 39.64724 | -104.68977 | 9620 ft | 179 kts | 358° |
| 2026-04-25 19:30 | 39.65953 | -104.68963 | 9361 ft | 176 kts | 359° |
| 2026-04-25 19:30 | 39.67168 | -104.68948 | 9113 ft | 171 kts | 358° |
| 2026-04-25 19:30 | 39.68346 | -104.68934 | 8889 ft | 169 kts | 359° |
| 2026-04-25 19:30 | 39.69522 | -104.68919 | 8654 ft | 169 kts | 359° |
| 2026-04-25 19:31 | 39.70701 | -104.68909 | 8393 ft | 170 kts | 359° |
| 2026-04-25 19:31 | 39.71872 | -104.68889 | 8100 ft | 168 kts | 0° |
| 2026-04-25 19:31 | 39.73010 | -104.68874 | 7911 ft | 160 kts | 360° |
| 2026-04-25 19:31 | 39.74141 | -104.68868 | 7736 ft | 164 kts | 0° |
| 2026-04-25 19:32 | 39.75286 | -104.68842 | 7588 ft | 163 kts | 0° |
| 2026-04-25 19:32 | 39.76433 | -104.68821 | 7385 ft | 166 kts | 1° |
| 2026-04-25 19:32 | 39.77573 | -104.68814 | 7062 ft | 165 kts | 0° |
| 2026-04-25 19:32 | 39.78332 | -104.68816 | 6831 ft | 163 kts | 360° |
| 2026-04-25 19:33 | 39.79799 | -104.68825 | 6471 ft | 155 kts | 2° |
| 2026-04-25 19:33 | 39.80879 | -104.68803 | 6306 ft | 154 kts | 1° |
| 2026-04-25 19:33 | 39.81957 | -104.68778 | 6136 ft | 157 kts | 1° |
| 2026-04-25 19:33 | 39.83064 | -104.68769 | 5968 ft | 158 kts | 1° |
| 2026-04-25 19:34 | 39.84151 | -104.68740 | 5749 ft | 157 kts | 1° |
| 2026-04-25 19:34 | 39.85249 | -104.68732 | 5543 ft | 154 kts | 1° |
| 2026-04-25 19:34 | 39.86308 | -104.68727 | 5352 ft | 152 kts | 1° |
| 2026-04-25 19:34 | 39.87270 | -104.68710 | 5345 ft | 110 kts | 1° |
| 2026-04-25 19:35 | 39.87864 | -104.68703 | 5328 ft | 72 kts | 1° |
| 2026-04-25 19:35 | 39.88344 | -104.68689 | 5354 ft | 52 kts | 8° |
| 2026-04-25 19:35 | 39.88584 | -104.68577 | 5371 ft | 13 kts | 37° |
| 2026-04-25 19:35 | 39.88592 | -104.68566 | 5371 ft | 0 kts | 50° |
| 2026-04-25 19:36 | 39.88599 | -104.68540 | 5373 ft | 8 kts | 83° |
| 2026-04-25 19:36 | 39.88565 | -104.68484 | 5374 ft | 12 kts | 165° |
| 2026-04-25 19:37 | 39.88461 | -104.68484 | 5369 ft | 20 kts | 181° |
| 2026-04-25 19:37 | 39.88291 | -104.68485 | 5359 ft | 26 kts | 180° |
| 2026-04-25 19:37 | 39.88120 | -104.68487 | 5349 ft | 21 kts | 180° |
| 2026-04-25 19:37 | 39.87962 | -104.68488 | 5341 ft | 23 kts | 180° |
| 2026-04-25 19:38 | 39.87790 | -104.68491 | 5339 ft | 24 kts | 180° |
| 2026-04-25 19:38 | 39.87630 | -104.68493 | 5343 ft | 20 kts | 180° |
| 2026-04-25 19:38 | 39.87492 | -104.68494 | 5348 ft | 20 kts | 180° |
| 2026-04-25 19:38 | 39.87363 | -104.68494 | 5353 ft | 16 kts | 180° |
| 2026-04-25 19:39 | 39.87262 | -104.68495 | 5356 ft | 13 kts | 179° |
| 2026-04-25 19:39 | 39.87181 | -104.68496 | 5358 ft | 11 kts | 182° |
| 2026-04-25 19:39 | 39.87070 | -104.68499 | 5354 ft | 18 kts | 180° |
| 2026-04-25 19:39 | 39.86934 | -104.68501 | 5349 ft | 20 kts | 180° |